createdAt,value
2022-11-08T00:00:14.341Z,5.47
2022-11-08T00:02:41.349Z,5.21
2022-11-08T00:05:27.109Z,5.10
2022-11-08T00:08:13.037Z,5.10
2022-11-08T00:10:58.687Z,5.15
2022-11-08T00:13:44.239Z,5.10
2022-11-08T00:16:11.147Z,5.15
2022-11-08T00:18:38.019Z,5.10
2022-11-08T00:21:04.924Z,5.27
2022-11-08T00:23:31.845Z,5.02
2022-11-08T00:25:58.732Z,4.90
2022-11-08T00:28:25.655Z,4.89
2022-11-08T00:30:52.586Z,4.88
2022-11-08T00:33:19.500Z,5.00
2022-11-08T00:35:46.375Z,5.19
2022-11-08T00:38:13.712Z,5.33
2022-11-08T00:40:40.639Z,5.35
2022-11-08T00:43:07.616Z,5.35
2022-11-08T00:45:34.559Z,5.44
2022-11-08T00:48:01.480Z,5.44
2022-11-08T00:50:28.354Z,5.46
2022-11-08T00:52:55.265Z,5.22
2022-11-08T00:55:22.207Z,5.24
2022-11-08T00:58:04.163Z,5.09
2022-11-08T01:00:31.105Z,4.88
2022-11-08T01:03:16.548Z,4.76
2022-11-08T01:05:43.467Z,4.67
2022-11-08T01:08:11.517Z,4.71
2022-11-08T01:10:42.877Z,4.92
2022-11-08T01:13:11.676Z,4.89
2022-11-08T01:15:42.176Z,4.64
2022-11-08T01:18:11.292Z,4.55
2022-11-08T01:20:42.978Z,4.69
2022-11-08T01:23:11.395Z,4.73
2022-11-08T01:25:40.952Z,4.84
2022-11-08T01:28:09.292Z,4.63
2022-11-08T01:30:38.120Z,4.60
2022-11-08T01:33:06.286Z,4.41
2022-11-08T01:35:35.392Z,4.45
2022-11-08T01:38:03.448Z,4.32
2022-11-08T01:40:31.729Z,4.33
2022-11-08T01:42:58.856Z,4.26
2022-11-08T01:46:17.903Z,4.33
2022-11-08T01:49:07.997Z,4.48
2022-11-08T01:51:50.685Z,4.36
2022-11-08T01:54:37.166Z,4.17
2022-11-08T01:57:09.459Z,4.02
2022-11-08T01:59:40.729Z,4.13
2022-11-08T02:02:10.061Z,4.05
2022-11-08T02:04:40.316Z,3.94
2022-11-08T02:07:09.685Z,4.02
2022-11-08T02:09:39.034Z,4.03
2022-11-08T02:12:07.980Z,3.98
2022-11-08T02:14:37.043Z,3.86
2022-11-08T02:17:05.698Z,3.77
2022-11-08T02:19:44.712Z,3.95
2022-11-08T02:22:43.787Z,4.08
2022-11-08T02:25:11.020Z,3.91
2022-11-08T02:27:37.961Z,4.24
2022-11-08T02:30:05.702Z,3.84
2022-11-08T02:32:40.554Z,3.91
2022-11-08T02:35:15.391Z,3.74
2022-11-08T02:37:42.993Z,3.79
2022-11-08T02:40:10.580Z,3.72
2022-11-08T02:42:40.606Z,3.76
2022-11-08T02:45:08.766Z,3.73
2022-11-08T02:47:35.757Z,4.04
2022-11-08T02:50:03.399Z,3.85
2022-11-08T02:52:30.355Z,3.81
2022-11-08T02:54:57.256Z,3.84
2022-11-08T02:57:24.240Z,3.56
2022-11-08T02:59:52.061Z,3.60
2022-11-08T03:02:19.143Z,3.70
2022-11-08T03:04:46.209Z,3.72
2022-11-08T03:07:13.129Z,3.79
2022-11-08T03:09:40.103Z,3.76
2022-11-08T03:12:07.315Z,3.95
2022-11-08T03:14:34.257Z,3.87
2022-11-08T03:17:01.198Z,3.68
2022-11-08T03:19:28.098Z,3.44
2022-11-08T03:21:55.027Z,3.37
2022-11-08T03:24:21.976Z,3.44
2022-11-08T03:26:48.900Z,3.48
2022-11-08T03:29:15.815Z,3.55
2022-11-08T03:31:42.755Z,3.41
2022-11-08T03:34:10.874Z,3.35
2022-11-08T03:36:37.863Z,3.43
2022-11-08T03:39:04.893Z,3.47
2022-11-08T03:41:31.764Z,3.24
2022-11-08T03:43:58.685Z,3.47
2022-11-08T03:46:25.627Z,3.36
2022-11-08T03:48:52.582Z,3.12
2022-11-08T03:51:19.539Z,3.22
2022-11-08T03:53:46.461Z,3.29
2022-11-08T03:56:13.355Z,3.22
2022-11-08T03:58:40.264Z,3.20
2022-11-08T04:01:08.282Z,2.89
2022-11-08T04:03:35.307Z,3.13
2022-11-08T04:06:03.612Z,2.95
2022-11-08T04:08:30.938Z,2.97
2022-11-08T04:11:18.814Z,2.99
2022-11-08T04:14:04.758Z,2.92
2022-11-08T04:16:32.884Z,2.72
2022-11-08T04:19:19.336Z,2.82
2022-11-08T04:21:48.986Z,2.78
2022-11-08T04:24:16.930Z,2.68
2022-11-08T04:26:44.140Z,2.61
2022-11-08T04:29:11.142Z,2.46
2022-11-08T04:31:38.061Z,2.42
2022-11-08T04:34:05.836Z,3.02
2022-11-08T04:36:36.233Z,3.15
2022-11-08T04:39:04.017Z,3.43
2022-11-08T04:41:31.001Z,3.23
2022-11-08T04:43:58.125Z,2.87
2022-11-08T04:46:27.891Z,2.92
2022-11-08T04:48:57.717Z,2.92
2022-11-08T04:51:28.238Z,2.65
2022-11-08T04:53:57.597Z,2.56
2022-11-08T04:56:26.546Z,2.47
2022-11-08T04:58:57.071Z,2.48
2022-11-08T05:01:27.880Z,2.51
2022-11-08T05:03:55.395Z,2.54
2022-11-08T05:06:28.780Z,2.51
2022-11-08T05:08:57.619Z,2.21
2022-11-08T05:11:27.038Z,1.99
2022-11-08T05:13:54.444Z,2.04
2022-11-08T05:16:30.454Z,2.01
2022-11-08T05:18:58.164Z,2.04
2022-11-08T05:21:44.800Z,2.21
2022-11-08T05:24:15.951Z,2.23
2022-11-08T05:26:45.528Z,2.43
2022-11-08T05:29:15.010Z,2.66
2022-11-08T05:31:42.225Z,2.62
2022-11-08T05:34:09.259Z,2.81
2022-11-08T05:36:36.222Z,2.54
2022-11-08T05:39:03.276Z,2.48
2022-11-08T05:41:30.171Z,2.71
2022-11-08T05:43:57.866Z,2.39
2022-11-08T05:46:25.228Z,2.41
2022-11-08T05:48:52.867Z,2.37
2022-11-08T05:51:20.717Z,2.39
2022-11-08T05:53:48.762Z,2.62
2022-11-08T05:56:16.801Z,2.34
2022-11-08T05:58:44.594Z,2.13
2022-11-08T06:01:17.145Z,2.05
2022-11-08T06:03:44.659Z,2.22
2022-11-08T06:06:14.355Z,2.16
2022-11-08T06:08:44.976Z,2.11
2022-11-08T06:11:17.220Z,2.15
2022-11-08T06:13:44.863Z,2.27
2022-11-08T06:16:14.071Z,2.25
2022-11-08T06:18:41.750Z,2.62
2022-11-08T06:21:14.851Z,2.30
2022-11-08T06:23:42.564Z,2.18
2022-11-08T06:26:10.318Z,2.25
2022-11-08T06:28:37.655Z,2.22
2022-11-08T06:31:05.703Z,2.17
2022-11-08T06:33:33.437Z,2.09
2022-11-08T06:36:00.858Z,2.37
2022-11-08T06:38:27.903Z,2.30
2022-11-08T06:40:54.836Z,2.55
2022-11-08T06:43:22.272Z,2.45
2022-11-08T06:45:49.721Z,2.65
2022-11-08T06:48:16.785Z,2.68
2022-11-08T06:50:44.160Z,2.99
2022-11-08T06:53:13.636Z,2.79
2022-11-08T06:55:41.055Z,2.84
2022-11-08T06:58:08.127Z,3.12
2022-11-08T07:00:35.336Z,3.13
2022-11-08T07:03:04.329Z,3.16
2022-11-08T07:05:34.199Z,3.14
2022-11-08T07:08:02.180Z,3.51
2022-11-08T07:10:32.196Z,3.55
2022-11-08T07:13:21.505Z,3.41
2022-11-08T07:15:48.981Z,3.44
2022-11-08T07:18:17.775Z,3.37
2022-11-08T07:20:45.048Z,3.47
2022-11-08T07:23:13.857Z,3.40
2022-11-08T07:25:41.240Z,3.78
2022-11-08T07:28:17.105Z,3.66
2022-11-08T07:30:46.286Z,3.96
2022-11-08T07:33:14.860Z,4.04
2022-11-08T07:35:44.370Z,4.11
2022-11-08T07:38:11.332Z,4.32
2022-11-08T07:40:38.271Z,4.59
2022-11-08T07:43:23.561Z,5.17
2022-11-08T07:45:58.996Z,5.72
2022-11-08T07:48:28.043Z,5.93
2022-11-08T07:50:55.303Z,6.39
2022-11-08T07:53:22.768Z,6.80
2022-11-08T07:55:49.775Z,7.33
2022-11-08T07:58:16.793Z,7.93
2022-11-08T08:00:45.353Z,8.31
2022-11-08T08:03:14.491Z,9.04
2022-11-08T08:05:44.648Z,9.45
2022-11-08T08:08:13.165Z,9.20
2022-11-08T08:10:41.166Z,9.08
2022-11-08T08:13:08.862Z,9.32
2022-11-08T08:15:35.842Z,9.36
2022-11-08T08:18:05.101Z,8.94
2022-11-08T08:20:33.118Z,8.98
2022-11-08T08:23:01.020Z,9.16
2022-11-08T08:25:30.981Z,9.57
2022-11-08T08:28:00.905Z,9.92
2022-11-08T08:30:30.294Z,9.49
2022-11-08T08:33:27.959Z,9.76
2022-11-08T08:35:56.366Z,10.21
2022-11-08T08:38:23.529Z,11.86
2022-11-08T08:40:51.567Z,13.99
2022-11-08T08:43:19.673Z,15.34
2022-11-08T08:45:47.381Z,16.63
2022-11-08T08:48:14.370Z,17.77
2022-11-08T08:50:41.563Z,18.17
2022-11-08T08:53:08.614Z,19.05
2022-11-08T08:55:36.387Z,19.48
2022-11-08T08:58:03.713Z,20.41
2022-11-08T09:03:17.936Z,21.01
2022-11-08T09:05:46.623Z,21.06
2022-11-08T09:08:15.286Z,21.65
2022-11-08T09:10:43.177Z,22.56
2022-11-08T09:13:10.767Z,21.79
2022-11-08T09:15:39.239Z,19.29
2022-11-08T09:18:06.692Z,17.92
2022-11-08T09:20:33.653Z,17.31
2022-11-08T09:23:04.232Z,17.51
2022-11-08T09:25:31.715Z,17.36
2022-11-08T09:27:58.714Z,17.00
2022-11-08T09:30:26.614Z,17.25
2022-11-08T09:33:00.871Z,17.80
2022-11-08T09:35:29.599Z,18.54
2022-11-08T09:37:57.881Z,19.38
2022-11-08T09:40:50.821Z,20.22
2022-11-08T09:43:43.407Z,20.68
2022-11-08T09:46:41.453Z,21.32
2022-11-08T09:49:21.888Z,21.08
2022-11-08T09:51:49.933Z,20.92
2022-11-08T09:54:28.198Z,21.85
2022-11-08T09:56:55.749Z,21.98
2022-11-08T09:59:39.882Z,22.97
2022-11-08T10:02:24.911Z,23.03
2022-11-08T10:05:03.053Z,23.36
2022-11-08T10:07:39.042Z,23.82
2022-11-08T10:10:27.564Z,23.61
2022-11-08T10:15:37.873Z,22.21
2022-11-08T10:18:27.192Z,22.02
2022-11-08T10:21:21.103Z,21.75
2022-11-08T10:24:03.095Z,20.56
2022-11-08T10:26:37.085Z,19.95
2022-11-08T10:29:21.953Z,19.23
2022-11-08T10:31:58.380Z,18.66
2022-11-08T10:34:36.542Z,17.95
2022-11-08T10:37:06.482Z,17.38
2022-11-08T10:39:43.940Z,17.37
2022-11-08T10:42:19.141Z,17.05
2022-11-08T10:44:46.840Z,16.97
2022-11-08T10:47:27.060Z,16.99
2022-11-08T10:49:57.193Z,17.51
2022-11-08T10:52:41.068Z,17.75
2022-11-08T10:55:23.802Z,17.46
2022-11-08T10:57:50.764Z,17.65
2022-11-08T11:00:20.665Z,17.46
2022-11-08T11:02:56.673Z,17.46
2022-11-08T11:05:31.867Z,17.56
2022-11-08T11:08:02.984Z,17.59
2022-11-08T11:10:43.890Z,18.32
2022-11-08T11:13:25.148Z,18.86
2022-11-08T11:15:56.514Z,19.17
2022-11-08T11:18:46.462Z,20.06
2022-11-08T11:21:15.180Z,21.34
2022-11-08T11:23:49.371Z,22.38
2022-11-08T11:26:39.068Z,23.42
2022-11-08T11:29:05.929Z,24.20
2022-11-08T11:31:45.622Z,24.78
2022-11-08T11:34:18.690Z,24.94
2022-11-08T11:37:10.933Z,25.73
2022-11-08T11:39:50.156Z,25.38
2022-11-08T11:42:59.280Z,23.22
2022-11-08T11:45:44.951Z,22.21
2022-11-08T11:48:17.450Z,21.73
2022-11-08T11:50:49.593Z,21.12
2022-11-08T11:53:39.490Z,20.50
2022-11-08T11:56:17.331Z,20.15
2022-11-08T11:59:02.368Z,19.53
2022-11-08T12:01:38.455Z,19.17
2022-11-08T12:04:17.337Z,18.71
2022-11-08T12:07:07.430Z,18.13
2022-11-08T12:10:00.859Z,17.93
2022-11-08T12:12:43.292Z,17.86
2022-11-08T12:15:33.067Z,17.67
2022-11-08T12:18:42.162Z,17.62
2022-11-08T12:21:32.212Z,17.87
2022-11-08T12:24:05.428Z,19.06
2022-11-08T12:26:52.409Z,19.23
2022-11-08T12:29:46.534Z,19.65
2022-11-08T12:32:16.602Z,18.81
2022-11-08T12:35:05.445Z,18.47
2022-11-08T12:37:39.877Z,18.73
2022-11-08T12:40:48.844Z,18.17
2022-11-08T12:43:19.317Z,17.39
2022-11-08T12:45:57.416Z,17.42
2022-11-08T12:48:48.613Z,17.47
2022-11-08T12:52:01.029Z,17.27
2022-11-08T12:54:38.973Z,17.89
2022-11-08T12:57:15.129Z,19.21
2022-11-08T13:00:03.382Z,19.56
2022-11-08T13:02:38.046Z,18.80
2022-11-08T13:05:13.884Z,18.11
2022-11-08T13:08:01.171Z,18.60
2022-11-08T13:10:47.701Z,19.13
2022-11-08T13:13:37.897Z,20.31
2022-11-08T13:16:11.084Z,19.43
2022-11-08T13:18:49.612Z,18.74
2022-11-08T13:21:29.900Z,18.56
2022-11-08T13:24:09.915Z,18.73
2022-11-08T13:26:43.156Z,19.46
2022-11-08T13:29:17.974Z,20.00
2022-11-08T13:31:58.789Z,19.60
2022-11-08T13:34:28.845Z,19.00
2022-11-08T13:36:56.109Z,18.65
2022-11-08T13:39:35.519Z,18.40
2022-11-08T13:42:02.783Z,18.25
2022-11-08T13:44:55.120Z,17.73
2022-11-08T13:47:35.536Z,17.59
2022-11-08T13:50:38.425Z,17.23
2022-11-08T13:53:42.980Z,17.16
2022-11-08T13:56:10.241Z,16.92
2022-11-08T13:58:42.477Z,16.81
2022-11-08T14:01:18.885Z,16.77
2022-11-08T14:03:53.138Z,16.64
2022-11-08T14:06:29.490Z,16.55
2022-11-08T14:09:10.460Z,16.48
2022-11-08T14:11:46.349Z,16.52
2022-11-08T14:14:22.618Z,16.51
2022-11-08T14:17:23.152Z,16.44
2022-11-08T14:19:51.882Z,16.50
2022-11-08T14:22:25.672Z,16.46
2022-11-08T14:24:55.215Z,16.39
2022-11-08T14:27:48.851Z,16.35
2022-11-08T14:30:19.801Z,16.27
2022-11-08T14:32:47.333Z,16.13
2022-11-08T14:35:25.861Z,16.04
2022-11-08T14:37:56.382Z,16.03
2022-11-08T14:40:30.273Z,16.04
2022-11-08T14:42:58.022Z,15.97
2022-11-08T14:45:29.370Z,15.96
2022-11-08T14:48:04.412Z,15.93
2022-11-08T14:50:34.227Z,15.89
2022-11-08T14:53:22.870Z,15.85
2022-11-08T14:56:13.720Z,15.83
2022-11-08T14:58:41.087Z,15.89
2022-11-08T15:01:10.395Z,15.83
2022-11-08T15:03:38.596Z,15.78
2022-11-08T15:06:13.595Z,15.70
2022-11-08T15:08:52.889Z,15.69
2022-11-08T15:11:32.190Z,15.66
2022-11-08T15:14:19.019Z,15.53
2022-11-08T15:16:51.983Z,15.43
2022-11-08T15:19:39.859Z,15.39
2022-11-08T15:22:24.268Z,15.36
2022-11-08T15:25:01.772Z,15.31
2022-11-08T15:27:29.198Z,15.12
2022-11-08T15:30:09.780Z,14.88
2022-11-08T15:32:39.055Z,15.08
2022-11-08T15:35:08.081Z,14.48
2022-11-08T15:37:41.535Z,14.42
2022-11-08T15:40:21.085Z,14.12
2022-11-08T15:42:50.678Z,13.92
2022-11-08T15:45:17.904Z,13.68
2022-11-08T15:47:47.239Z,13.45
2022-11-08T15:50:22.090Z,13.68
2022-11-08T15:52:51.773Z,13.69
2022-11-08T15:55:38.071Z,13.75
2022-11-08T15:58:09.295Z,13.62
2022-11-08T16:00:38.202Z,13.33
2022-11-08T16:03:05.619Z,13.17
2022-11-08T16:05:32.978Z,12.96
2022-11-08T16:08:00.729Z,12.71
2022-11-08T16:10:31.543Z,12.57
2022-11-08T16:13:00.909Z,12.50
2022-11-08T16:15:32.301Z,12.33
2022-11-08T16:18:00.807Z,11.94
2022-11-08T16:20:33.587Z,11.81
2022-11-08T16:23:03.431Z,11.81
2022-11-08T16:25:35.158Z,11.54
2022-11-08T16:28:17.704Z,11.60
2022-11-08T16:30:46.951Z,11.28
2022-11-08T16:33:23.111Z,11.23
2022-11-08T16:35:51.284Z,11.42
2022-11-08T16:38:33.972Z,11.42
2022-11-08T16:41:01.428Z,11.06
2022-11-08T16:43:29.050Z,10.82
2022-11-08T16:46:05.929Z,10.78
2022-11-08T16:48:36.428Z,10.97
2022-11-08T16:51:06.539Z,10.94
2022-11-08T16:53:36.727Z,10.85
2022-11-08T16:56:04.183Z,10.60
2022-11-08T16:58:31.509Z,10.84
2022-11-08T17:00:58.953Z,10.75
2022-11-08T17:03:29.569Z,10.78
2022-11-08T17:05:57.894Z,10.65
2022-11-08T17:08:25.336Z,10.52
2022-11-08T17:10:53.376Z,10.95
2022-11-08T17:13:21.815Z,11.24
2022-11-08T17:15:50.526Z,11.17
2022-11-08T17:18:21.093Z,11.20
2022-11-08T17:20:48.922Z,11.58
2022-11-08T17:23:16.352Z,11.53
2022-11-08T17:25:44.467Z,11.43
2022-11-08T17:28:12.588Z,11.54
2022-11-08T17:33:31.516Z,11.20
2022-11-08T17:36:04.959Z,12.08
2022-11-08T17:38:37.582Z,11.68
2022-11-08T17:41:10.109Z,12.04
2022-11-08T17:43:37.407Z,11.65
2022-11-08T17:46:05.231Z,11.49
2022-11-08T17:48:33.447Z,11.49
2022-11-08T17:51:01.185Z,11.24
2022-11-08T17:53:28.791Z,11.74
2022-11-08T17:56:01.369Z,12.09
2022-11-08T17:58:28.790Z,11.08
2022-11-08T18:00:57.850Z,11.70
2022-11-08T18:03:26.344Z,12.28
2022-11-08T18:06:00.123Z,12.18
2022-11-08T18:08:29.082Z,12.11
2022-11-08T18:10:56.781Z,12.07
2022-11-08T18:13:26.182Z,11.87
2022-11-08T18:15:54.017Z,11.54
2022-11-08T18:18:21.767Z,11.60
2022-11-08T18:20:58.101Z,11.85
2022-11-08T18:23:25.456Z,12.00
2022-11-08T18:25:53.344Z,12.19
2022-11-08T18:28:20.752Z,12.45
2022-11-08T18:30:48.386Z,12.22
2022-11-08T18:33:17.133Z,11.83
2022-11-08T18:35:45.070Z,11.96
2022-11-08T18:38:13.418Z,11.74
2022-11-08T18:40:43.020Z,12.32
2022-11-08T18:43:10.359Z,12.09
2022-11-08T18:45:37.724Z,12.12
2022-11-08T18:48:05.436Z,11.83
2022-11-08T18:50:33.173Z,11.68
2022-11-08T18:53:03.468Z,11.40
2022-11-08T18:55:32.118Z,11.05
2022-11-08T18:58:01.712Z,10.70
2022-11-08T19:00:29.095Z,10.55
2022-11-08T19:02:56.745Z,10.40
2022-11-08T19:05:24.170Z,10.21
2022-11-08T19:07:51.472Z,10.13
2022-11-08T19:10:19.031Z,9.82
2022-11-08T19:12:46.309Z,9.68
2022-11-08T19:15:14.349Z,9.75
2022-11-08T19:17:42.800Z,9.58
2022-11-08T19:20:10.880Z,9.54
2022-11-08T19:22:38.168Z,9.49
2022-11-08T19:25:05.599Z,9.48
2022-11-08T19:27:32.937Z,9.37
2022-11-08T19:30:00.381Z,9.54
2022-11-08T19:32:27.691Z,9.51
2022-11-08T19:34:55.024Z,9.33
2022-11-08T19:37:22.273Z,9.16
2022-11-08T19:39:49.700Z,9.14
2022-11-08T19:42:16.999Z,9.08
2022-11-08T19:44:44.296Z,9.23
2022-11-08T19:47:11.640Z,9.07
2022-11-08T19:49:39.137Z,9.14
2022-11-08T19:52:06.396Z,8.94
2022-11-08T19:54:33.718Z,8.93
2022-11-08T19:57:05.898Z,9.08
2022-11-08T19:59:33.832Z,8.87
2022-11-08T20:02:01.223Z,8.71
2022-11-08T20:04:28.527Z,8.78
2022-11-08T20:06:55.900Z,8.95
2022-11-08T20:09:27.520Z,9.15
2022-11-08T20:11:57.782Z,8.77
2022-11-08T20:14:25.290Z,8.66
2022-11-08T20:16:54.061Z,8.65
2022-11-08T20:19:21.611Z,8.81
2022-11-08T20:21:49.282Z,8.75
2022-11-08T20:24:17.292Z,8.88
2022-11-08T20:26:45.124Z,8.64
2022-11-08T20:29:12.599Z,8.49
2022-11-08T20:31:42.487Z,8.48
2022-11-08T20:34:11.827Z,8.60
2022-11-08T20:36:40.905Z,8.71
2022-11-08T20:39:08.399Z,8.86
2022-11-08T20:41:37.735Z,8.82
2022-11-08T20:44:06.284Z,8.94
2022-11-08T20:46:34.530Z,9.12
2022-11-08T20:49:02.499Z,9.22
2022-11-08T20:51:30.810Z,9.14
2022-11-08T20:53:59.456Z,9.11
2022-11-08T20:56:27.604Z,9.14
2022-11-08T20:58:54.927Z,9.03
2022-11-08T21:01:24.424Z,9.10
2022-11-08T21:03:52.615Z,9.31
2022-11-08T21:06:22.594Z,9.25
2022-11-08T21:08:59.023Z,9.24
2022-11-08T21:11:27.234Z,9.15
2022-11-08T21:13:54.527Z,9.04
2022-11-08T21:16:31.899Z,9.02
2022-11-08T21:19:06.346Z,9.20
2022-11-08T21:21:33.677Z,9.07
2022-11-08T21:24:00.991Z,8.80
2022-11-08T21:26:28.569Z,8.97
2022-11-08T21:28:55.922Z,9.10
2022-11-08T21:31:23.355Z,9.13
2022-11-08T21:33:50.688Z,9.10
2022-11-08T21:36:18.396Z,9.17
2022-11-08T21:38:45.750Z,9.32
2022-11-08T21:41:13.560Z,9.04
2022-11-08T21:43:44.377Z,8.97
2022-11-08T21:46:25.671Z,9.17
2022-11-08T21:48:58.892Z,9.35
2022-11-08T21:51:26.959Z,9.37
2022-11-08T21:53:56.269Z,9.18
2022-11-08T21:56:25.792Z,9.27
2022-11-08T21:58:53.654Z,9.18
2022-11-08T22:01:25.399Z,9.18
2022-11-08T22:03:54.562Z,9.29
2022-11-08T22:06:22.605Z,9.25
2022-11-08T22:08:49.956Z,9.14
2022-11-08T22:11:17.299Z,9.19
2022-11-08T22:13:44.746Z,9.17
2022-11-08T22:16:12.191Z,9.11
2022-11-08T22:21:40.009Z,9.13
2022-11-08T22:24:13.112Z,8.92
2022-11-08T22:26:41.288Z,8.97
2022-11-08T22:29:09.157Z,8.94
2022-11-08T22:31:36.734Z,8.92
2022-11-08T22:34:04.939Z,8.93
2022-11-08T22:36:32.372Z,8.77
2022-11-08T22:38:59.838Z,8.73
2022-11-08T22:41:27.352Z,8.47
2022-11-08T22:43:54.947Z,8.16
2022-11-08T22:46:22.456Z,8.03
2022-11-08T22:48:49.772Z,8.22
2022-11-08T22:51:17.610Z,8.21
2022-11-08T22:53:44.979Z,8.24
2022-11-08T22:56:12.544Z,8.29
2022-11-08T22:58:39.948Z,8.36
2022-11-08T23:01:08.204Z,8.29
2022-11-08T23:03:35.553Z,8.23
2022-11-08T23:06:02.861Z,8.23
2022-11-08T23:08:30.671Z,8.33
2022-11-08T23:11:20.071Z,8.28
2022-11-08T23:14:06.413Z,8.19
2022-11-08T23:16:40.194Z,7.94
2022-11-08T23:19:28.921Z,7.74
2022-11-08T23:22:15.510Z,7.62
2022-11-08T23:24:43.087Z,7.59
2022-11-08T23:27:30.813Z,7.70
2022-11-08T23:30:16.699Z,7.85
2022-11-08T23:32:46.201Z,8.00
2022-11-08T23:35:13.945Z,7.92
2022-11-08T23:37:41.549Z,7.89
2022-11-08T23:40:28.858Z,7.84
2022-11-08T23:43:37.018Z,7.71
2022-11-08T23:46:07.435Z,7.99
2022-11-08T23:48:35.228Z,8.05
2022-11-08T23:51:02.649Z,8.02
2022-11-08T23:53:30.138Z,7.84
2022-11-08T23:55:57.605Z,7.82
2022-11-08T23:58:26.476Z,7.81
